Taboao da Serra, Brazil
Current Conditions -  °F | °C
As of 11:00 PM on Friday 24 Oct 2014 (Local Time) from SBSP Reporting Station
Overcast Overcast  
Wind Chill: 64°   Ceiling: 800
Heat Index: 64°   Visibility: 6mi
Dew Point: 59°   Wind: 6mph
Humidity: 83%   Direction: 150°SSE
Pressure: 30.06"   Gusts: NA
Location:  23.6°S, 46.78°W
Report Text: SBSP 250100Z 15005KT 9999 OVC008 18/15 Q1018
Loading
Personal Weather Stations






























Interactive Weather Map
Tropical Storm Tracking
New forecast layout! Learn more

10-Day Weather Forecast

Advertisements
Track Severe Weather on mobile